Time;durP1;ratioP1;P1;durP2;ratioP2;P2;SDS_P1;SDS_P2;PMS_P1;PMS_P2;Temp;Humidity;BMP_temperature;BMP_pressure;BME280_temperature;BME280_humidity;BME280_pressure;Samples;Min_cycle;Max_cycle;Signal;HPM_P1;HPM_P2
2021/04/17 00:00:33;;;;;;;2.10;1.00;;;6.10;99.90;;;;;;5044878;28;20225;-81
2021/04/17 00:03:01;;;;;;;1.60;0.85;;;6.10;99.90;;;;;;5051213;28;20220;-82
2021/04/17 00:05:28;;;;;;;3.05;2.00;;;6.10;99.90;;;;;;5049789;28;20201;-78
2021/04/17 00:07:55;;;;;;;2.65;1.50;;;6.10;99.90;;;;;;5050682;28;20174;-78
2021/04/17 00:10:23;;;;;;;1.48;1.00;;;6.10;99.90;;;;;;5049600;28;20209;-80
2021/04/17 00:12:51;;;;;;;1.60;0.95;;;6.10;99.90;;;;;;5040008;28;20186;-81
2021/04/17 00:15:18;;;;;;;1.15;0.93;;;6.10;99.90;;;;;;5038132;28;20272;-81
2021/04/17 00:17:45;;;;;;;2.70;1.00;;;6.00;99.90;;;;;;5041151;28;20170;-79
2021/04/17 00:20:14;;;;;;;2.85;1.30;;;6.10;99.90;;;;;;5054993;22;20650;-65
2021/04/17 00:22:41;;;;;;;1.10;0.90;;;6.10;99.90;;;;;;5034278;28;20193;-65
2021/04/17 00:25:09;;;;;;;4.63;0.90;;;6.10;99.90;;;;;;5032202;28;20197;-66
2021/04/17 00:27:36;;;;;;;2.38;0.95;;;6.10;99.90;;;;;;5032215;28;20255;-64
2021/04/17 00:30:06;;;;;;;2.25;0.68;;;6.10;99.90;;;;;;5014336;28;20186;-66
2021/04/17 00:32:33;;;;;;;1.17;0.80;;;6.10;99.90;;;;;;5032114;28;20189;-65
2021/04/17 00:35:01;;;;;;;1.25;0.80;;;6.10;99.90;;;;;;5031741;28;20169;-66
2021/04/17 00:37:28;;;;;;;4.22;1.35;;;6.20;99.90;;;;;;5031894;28;20642;-66
2021/04/17 00:39:55;;;;;;;1.42;0.90;;;6.10;99.90;;;;;;5031438;28;20185;-67
2021/04/17 00:42:22;;;;;;;2.05;1.30;;;6.10;99.90;;;;;;5031790;28;20238;-65
2021/04/17 00:44:49;;;;;;;9.00;1.50;;;6.20;99.90;;;;;;5013706;28;20628;-65
2021/04/17 00:47:17;;;;;;;1.70;1.13;;;6.10;99.90;;;;;;5031453;28;20210;-67
2021/04/17 00:50:00;;;;;;;1.13;0.90;;;6.10;99.90;;;;;;5031772;28;20193;-66
2021/04/17 00:52:27;;;;;;;3.58;0.95;;;6.10;99.90;;;;;;5031936;28;20181;-68
2021/04/17 00:54:57;;;;;;;1.38;0.90;;;6.10;99.90;;;;;;5013795;28;20186;-66
2021/04/17 00:57:24;;;;;;;2.28;1.00;;;6.10;99.90;;;;;;5031107;28;20239;-66
2021/04/17 00:59:51;;;;;;;1.95;1.20;;;6.10;99.90;;;;;;5031159;28;20209;-66
2021/04/17 01:02:28;;;;;;;1.25;1.15;;;6.10;99.90;;;;;;5031263;28;20181;-66
2021/04/17 01:04:57;;;;;;;2.50;1.40;;;6.10;99.90;;;;;;5031601;28;20198;-66
2021/04/17 01:07:26;;;;;;;1.33;0.82;;;6.10;99.90;;;;;;5031262;28;20205;-64
2021/04/17 01:10:01;;;;;;;1.35;0.80;;;6.10;99.90;;;;;;5031166;28;20187;-66
2021/04/17 01:12:33;;;;;;;1.70;1.20;;;6.10;99.90;;;;;;5039584;28;20188;-66
2021/04/17 01:15:00;;;;;;;4.72;0.80;;;6.10;99.90;;;;;;5051415;28;20184;-65
2021/04/17 01:17:30;;;;;;;1.00;0.85;;;6.10;99.90;;;;;;5051255;28;20266;-65
2021/04/17 01:20:05;;;;;;;1.65;1.30;;;6.10;99.90;;;;;;5051105;28;20223;-65
2021/04/17 01:22:33;;;;;;;1.05;0.70;;;6.10;99.90;;;;;;5051304;28;20183;-65
2021/04/17 01:25:07;;;;;;;2.33;0.85;;;6.10;99.90;;;;;;5056912;28;20246;-66
2021/04/17 01:27:35;;;;;;;1.42;1.10;;;6.00;99.90;;;;;;5057570;28;20208;-65
2021/04/17 01:30:06;;;;;;;1.27;0.90;;;6.00;99.90;;;;;;5039919;28;20193;-66
2021/04/17 01:32:34;;;;;;;1.45;0.90;;;6.00;99.90;;;;;;5057138;28;20187;-66
2021/04/17 01:35:04;;;;;;;1.60;1.48;;;5.90;99.90;;;;;;5056872;28;20314;-65
2021/04/17 01:38:06;;;;;;;1.17;0.95;;;5.90;99.90;;;;;;5057403;28;20236;-65
2021/04/17 01:40:34;;;;;;;5.93;1.45;;;5.80;99.90;;;;;;5057271;28;20181;-65
2021/04/17 01:43:02;;;;;;;1.63;1.17;;;5.80;99.90;;;;;;5057269;28;20230;-65
2021/04/17 01:45:32;;;;;;;5.10;1.10;;;5.80;99.90;;;;;;5057236;28;20234;-66
2021/04/17 01:48:02;;;;;;;2.45;0.95;;;5.80;99.90;;;;;;5057036;28;20615;-63
2021/04/17 01:50:31;;;;;;;3.25;0.90;;;5.70;99.90;;;;;;5057043;28;20546;-66
2021/04/17 01:53:01;;;;;;;2.55;1.00;;;5.70;99.90;;;;;;5057501;28;20193;-66
2021/04/17 01:55:32;;;;;;;1.73;1.13;;;5.70;99.90;;;;;;5057113;28;20185;-66
2021/04/17 01:58:02;;;;;;;1.38;1.17;;;5.70;99.90;;;;;;5057076;28;20555;-66
2021/04/17 02:00:34;;;;;;;1.50;0.90;;;5.70;99.90;;;;;;5057148;28;20177;-65
2021/04/17 02:03:02;;;;;;;1.42;0.80;;;5.70;99.90;;;;;;5056823;28;20173;-65
2021/04/17 02:05:29;;;;;;;1.77;1.10;;;5.70;99.90;;;;;;5038939;28;20185;-66
2021/04/17 02:07:58;;;;;;;2.60;1.52;;;5.70;99.90;;;;;;5056807;28;20212;-66
2021/04/17 02:10:25;;;;;;;2.00;0.98;;;5.80;99.90;;;;;;5056998;28;20187;-66
2021/04/17 02:12:52;;;;;;;2.65;0.90;;;5.80;99.90;;;;;;5057030;28;20196;-66
2021/04/17 02:15:20;;;;;;;1.65;1.23;;;5.80;99.90;;;;;;5057034;28;20279;-65
2021/04/17 02:17:56;;;;;;;2.10;1.00;;;5.90;99.90;;;;;;5056816;28;20616;-65
2021/04/17 02:20:28;;;;;;;4.13;1.45;;;5.90;99.90;;;;;;5057051;28;20515;-65
2021/04/17 02:22:56;;;;;;;1.10;0.80;;;5.90;99.90;;;;;;5056876;28;20180;-66
2021/04/17 02:25:23;;;;;;;4.00;1.00;;;5.90;99.90;;;;;;5057083;28;20188;-65
2021/04/17 02:27:51;;;;;;;0.90;0.70;;;5.90;99.90;;;;;;5039208;28;20217;-65
2021/04/17 02:30:19;;;;;;;3.92;0.80;;;5.90;99.90;;;;;;5057230;28;20232;-66
2021/04/17 02:32:46;;;;;;;6.15;1.25;;;5.90;99.90;;;;;;5057118;28;20177;-64
2021/04/17 02:35:15;;;;;;;1.92;0.75;;;5.90;99.90;;;;;;5054847;28;20661;-65
2021/04/17 02:37:42;;;;;;;1.13;0.70;;;6.00;99.90;;;;;;5053746;28;20554;-65
2021/04/17 02:40:10;;;;;;;3.85;1.40;;;5.90;99.90;;;;;;5053561;28;20250;-66
2021/04/17 02:42:37;;;;;;;2.25;1.45;;;6.00;99.90;;;;;;5053616;28;20196;-65
2021/04/17 02:45:05;;;;;;;3.67;1.58;;;6.00;99.90;;;;;;5053775;28;20288;-65
2021/04/17 02:47:32;;;;;;;2.28;1.25;;;6.00;99.90;;;;;;5069260;28;20780;-65
2021/04/17 02:50:00;;;;;;;1.30;1.02;;;6.00;99.90;;;;;;5052615;28;20193;-65
2021/04/17 02:52:28;;;;;;;1.27;0.80;;;6.00;99.90;;;;;;5053855;28;20173;-66
2021/04/17 02:54:55;;;;;;;3.28;1.00;;;6.00;99.90;;;;;;5053461;28;20188;-66
2021/04/17 02:57:22;;;;;;;2.08;0.95;;;6.00;99.90;;;;;;5054032;28;20315;-65
2021/04/17 02:59:49;;;;;;;2.08;1.25;;;6.00;99.90;;;;;;5052539;28;20221;-66
2021/04/17 03:02:16;;;;;;;1.95;0.90;;;6.10;99.90;;;;;;5052711;28;20184;-66
2021/04/17 03:04:44;;;;;;;2.85;1.45;;;6.00;99.90;;;;;;5053219;28;20209;-66
2021/04/17 03:07:11;;;;;;;4.65;1.20;;;6.00;99.90;;;;;;5051796;28;20223;-66
2021/04/17 03:09:39;;;;;;;2.78;1.83;;;6.00;99.90;;;;;;5051847;28;20683;-66
2021/04/17 03:12:07;;;;;;;5.70;1.35;;;6.00;99.90;;;;;;5053183;28;20538;-66
2021/04/17 03:14:34;;;;;;;1.70;1.05;;;6.10;99.90;;;;;;5053173;28;20199;-65
2021/04/17 03:17:01;;;;;;;1.42;1.05;;;6.10;99.90;;;;;;5053518;28;20630;-66
2021/04/17 03:19:28;;;;;;;2.65;1.30;;;6.10;99.90;;;;;;5052756;28;20272;-65
2021/04/17 03:21:56;;;;;;;1.17;1.00;;;6.10;99.90;;;;;;5052829;28;20554;-66
2021/04/17 03:24:23;;;;;;;1.33;1.00;;;6.10;99.90;;;;;;5052611;28;20246;-65
2021/04/17 03:26:51;;;;;;;1.90;0.95;;;6.00;99.90;;;;;;5052790;28;20177;-66
2021/04/17 03:29:18;;;;;;;1.33;0.95;;;6.10;99.90;;;;;;5052916;28;20586;-66
2021/04/17 03:31:45;;;;;;;1.75;1.05;;;6.10;99.90;;;;;;5052739;28;20193;-66
2021/04/17 03:34:13;;;;;;;6.95;1.55;;;6.10;99.90;;;;;;5052737;28;20605;-65
2021/04/17 03:36:40;;;;;;;2.05;1.15;;;6.10;99.90;;;;;;5052576;28;20178;-66
2021/04/17 03:39:07;;;;;;;2.13;0.93;;;6.10;99.90;;;;;;5052920;28;20184;-66
2021/04/17 03:41:35;;;;;;;1.23;0.82;;;6.10;99.90;;;;;;5052879;28;20188;-66
2021/04/17 03:44:03;;;;;;;1.98;1.50;;;6.00;99.90;;;;;;5052901;28;20719;-66
2021/04/17 03:46:30;;;;;;;4.20;3.45;;;6.00;99.90;;;;;;5052565;28;20184;-66
2021/04/17 03:48:58;;;;;;;1.42;1.10;;;5.90;99.90;;;;;;5052213;28;20211;-66
2021/04/17 03:51:25;;;;;;;3.60;1.73;;;5.90;99.90;;;;;;5052267;28;20173;-66
2021/04/17 03:53:53;;;;;;;4.25;1.20;;;5.80;99.90;;;;;;5052802;28;20208;-66
2021/04/17 03:56:21;;;;;;;1.20;0.90;;;5.80;99.90;;;;;;5050794;28;20185;-66
2021/04/17 03:58:48;;;;;;;2.22;1.25;;;5.80;99.90;;;;;;5050604;28;20547;-66
2021/04/17 04:01:16;;;;;;;3.58;1.20;;;5.70;99.90;;;;;;5052069;28;20177;-66
2021/04/17 04:03:44;;;;;;;3.58;1.20;;;5.80;99.90;;;;;;5051672;28;20564;-67
2021/04/17 04:06:11;;;;;;;1.50;1.13;;;5.80;99.90;;;;;;5051830;28;20244;-66
2021/04/17 04:08:38;;;;;;;2.28;1.10;;;5.80;99.90;;;;;;5052372;28;20546;-65
2021/04/17 04:11:05;;;;;;;2.58;1.10;;;5.80;99.90;;;;;;5051855;28;20188;-65
2021/04/17 04:13:32;;;;;;;1.92;1.25;;;5.80;99.90;;;;;;5051683;28;20231;-65
2021/04/17 04:15:59;;;;;;;1.55;0.95;;;5.80;99.90;;;;;;5051554;28;20184;-64
2021/04/17 04:18:28;;;;;;;2.17;1.00;;;5.80;99.90;;;;;;5051353;28;20224;-64
2021/04/17 04:20:56;;;;;;;2.45;1.25;;;5.80;99.90;;;;;;5050116;28;20224;-65
2021/04/17 04:23:23;;;;;;;2.15;0.80;;;5.80;99.90;;;;;;5051451;28;20185;-67
2021/04/17 04:25:50;;;;;;;1.38;1.25;;;5.80;99.90;;;;;;5051540;28;20180;-65
2021/04/17 04:28:17;;;;;;;1.65;1.00;;;5.80;99.90;;;;;;5051487;28;20228;-65
2021/04/17 04:30:44;;;;;;;1.60;0.98;;;5.80;99.90;;;;;;5051428;28;20169;-66
2021/04/17 04:33:11;;;;;;;1.30;1.00;;;5.90;99.90;;;;;;5051505;28;20686;-66
2021/04/17 04:35:39;;;;;;;1.35;0.93;;;6.00;99.90;;;;;;5051388;28;20544;-66
2021/04/17 04:38:07;;;;;;;1.90;1.80;;;6.00;99.90;;;;;;5051290;28;20555;-64
2021/04/17 04:40:34;;;;;;;1.52;1.20;;;6.10;99.90;;;;;;5052018;28;20404;-66
2021/04/17 04:43:01;;;;;;;3.20;1.10;;;6.10;99.90;;;;;;5051850;28;20640;-66
2021/04/17 04:45:28;;;;;;;3.00;1.35;;;6.00;99.90;;;;;;5051801;28;20248;-65
2021/04/17 04:47:55;;;;;;;1.55;0.95;;;6.00;99.90;;;;;;5051588;28;20266;-66
2021/04/17 04:50:22;;;;;;;1.08;0.80;;;6.10;99.90;;;;;;5051492;28;20178;-65
2021/04/17 04:52:50;;;;;;;2.65;1.27;;;6.00;99.90;;;;;;5050287;28;20607;-65
2021/04/17 04:55:17;;;;;;;1.17;0.85;;;6.00;99.90;;;;;;5051710;28;20199;-65
2021/04/17 04:57:45;;;;;;;4.43;1.73;;;6.10;99.90;;;;;;5051418;28;20283;-64
2021/04/17 05:00:13;;;;;;;3.40;1.38;;;6.00;99.90;;;;;;5050836;28;20185;-66
2021/04/17 05:02:40;;;;;;;2.58;1.30;;;6.00;99.90;;;;;;5051195;28;20188;-67
2021/04/17 05:05:08;;;;;;;2.00;1.25;;;6.00;99.90;;;;;;5050774;28;20255;-65
2021/04/17 05:07:35;;;;;;;5.47;1.30;;;6.00;99.90;;;;;;5051253;28;20628;-63
2021/04/17 05:10:04;;;;;;;3.20;1.27;;;6.00;99.90;;;;;;5050814;28;20238;-66
2021/04/17 05:12:31;;;;;;;1.98;1.10;;;6.00;99.90;;;;;;5050883;28;20219;-65
2021/04/17 05:14:58;;;;;;;1.00;0.60;;;6.00;99.90;;;;;;5050936;28;20177;-66
2021/04/17 05:17:25;;;;;;;2.65;1.15;;;6.00;99.90;;;;;;5050963;28;20579;-65
2021/04/17 05:19:53;;;;;;;3.22;1.20;;;6.00;99.90;;;;;;5050519;28;20501;-66
2021/04/17 05:22:20;;;;;;;1.45;1.23;;;5.90;99.90;;;;;;5050812;28;20234;-65
2021/04/17 05:24:49;;;;;;;1.98;1.10;;;6.00;99.90;;;;;;5049588;28;20200;-65
2021/04/17 05:27:17;;;;;;;2.53;0.80;;;5.90;99.90;;;;;;5050706;28;20211;-65
2021/04/17 05:29:45;;;;;;;2.85;1.30;;;6.00;99.90;;;;;;5050899;28;20181;-65
2021/04/17 05:32:12;;;;;;;2.65;1.10;;;6.00;99.90;;;;;;5050691;28;20271;-65
2021/04/17 05:34:39;;;;;;;2.38;1.05;;;6.00;99.90;;;;;;5050992;28;20196;-65
2021/04/17 05:37:06;;;;;;;1.00;0.80;;;6.00;99.90;;;;;;5050845;28;20209;-66
2021/04/17 05:39:34;;;;;;;3.75;1.08;;;6.00;99.90;;;;;;5049451;28;20560;-65
2021/04/17 05:42:01;;;;;;;1.58;1.00;;;6.00;99.90;;;;;;5050965;28;20598;-66
2021/04/17 05:44:29;;;;;;;3.20;1.20;;;6.00;99.90;;;;;;5050552;28;20203;-66
2021/04/17 05:46:57;;;;;;;1.33;0.60;;;6.00;99.90;;;;;;5051018;28;20212;-66
2021/04/17 05:49:25;;;;;;;2.88;1.38;;;6.00;99.90;;;;;;5050981;28;20193;-66
2021/04/17 05:51:52;;;;;;;1.55;0.80;;;6.00;99.90;;;;;;5050712;28;20189;-66
2021/04/17 05:54:19;;;;;;;2.28;1.25;;;6.10;99.90;;;;;;5050878;28;20173;-66
2021/04/17 05:56:46;;;;;;;2.75;0.90;;;6.10;99.90;;;;;;5050993;28;20580;-66
2021/04/17 05:59:13;;;;;;;1.20;0.88;;;6.10;99.90;;;;;;5050831;28;20548;-66
2021/04/17 06:01:42;;;;;;;3.05;1.40;;;6.00;99.90;;;;;;5051683;28;20177;-66
2021/04/17 06:04:09;;;;;;;1.85;1.00;;;6.00;99.90;;;;;;5051010;28;20201;-66
2021/04/17 06:06:36;;;;;;;2.35;0.80;;;6.00;99.90;;;;;;5049439;28;20192;-65
2021/04/17 06:09:03;;;;;;;2.53;1.27;;;6.10;99.90;;;;;;5050977;28;20173;-66
2021/04/17 06:11:31;;;;;;;6.60;1.52;;;6.10;99.90;;;;;;5054178;28;20519;-66
2021/04/17 06:13:58;;;;;;;4.75;1.40;;;6.10;99.90;;;;;;5054165;28;20759;-66
2021/04/17 06:16:25;;;;;;;3.38;1.92;;;6.20;99.90;;;;;;5053058;28;20188;-66
2021/04/17 06:19:06;;;;;;;12.90;11.05;;;6.10;99.90;;;;;;5054162;28;20273;-66
2021/04/17 06:21:35;;;;;;;16.00;9.77;;;6.20;99.90;;;;;;5054462;28;20427;-66
2021/04/17 06:24:03;;;;;;;9.35;8.55;;;6.20;99.90;;;;;;5054092;28;20228;-65
2021/04/17 06:26:30;;;;;;;19.58;17.55;;;6.20;99.90;;;;;;5054371;28;20183;-65
2021/04/17 06:28:58;;;;;;;12.57;8.15;;;6.20;99.90;;;;;;5053537;28;20204;-64
2021/04/17 06:31:25;;;;;;;14.30;9.30;;;6.30;99.90;;;;;;5053755;28;20585;-65
2021/04/17 06:33:53;;;;;;;5.13;4.60;;;6.20;99.90;;;;;;5053752;28;20172;-65
2021/04/17 06:36:21;;;;;;;13.25;9.40;;;6.20;99.90;;;;;;5053685;28;20188;-65
2021/04/17 06:38:48;;;;;;;16.00;14.30;;;6.20;99.90;;;;;;5053632;28;20223;-65
2021/04/17 06:41:16;;;;;;;8.27;6.63;;;6.10;99.90;;;;;;5053460;28;20560;-66
2021/04/17 06:43:44;;;;;;;5.32;3.47;;;6.10;99.90;;;;;;5053354;28;20246;-66
2021/04/17 06:46:13;;;;;;;1.63;0.80;;;6.10;99.90;;;;;;5053882;28;20185;-66
2021/04/17 06:48:41;;;;;;;5.88;2.20;;;6.10;99.90;;;;;;5053390;28;20219;-66
2021/04/17 06:51:15;;;;;;;2.75;2.13;;;6.30;99.90;;;;;;5053612;28;20181;-64
2021/04/17 06:53:44;;;;;;;4.00;2.45;;;6.30;99.90;;;;;;5053547;28;20173;-66
2021/04/17 06:56:11;;;;;;;4.35;3.15;;;6.40;99.90;;;;;;5053488;28;20594;-65
2021/04/17 06:58:40;;;;;;;3.22;1.75;;;6.30;99.90;;;;;;5053411;28;20208;-65
2021/04/17 07:01:08;;;;;;;2.17;1.55;;;6.30;99.90;;;;;;5052222;28;20764;-67
2021/04/17 07:03:35;;;;;;;1.83;1.73;;;6.40;99.90;;;;;;5053404;28;20218;-65
2021/04/17 07:06:03;;;;;;;3.95;2.60;;;6.50;99.90;;;;;;5053283;28;20657;-65
2021/04/17 07:08:30;;;;;;;1.38;1.27;;;6.60;99.90;;;;;;5053459;28;20298;-65
2021/04/17 07:10:59;;;;;;;2.67;1.90;;;6.60;99.90;;;;;;5053852;28;20231;-66
2021/04/17 07:13:27;;;;;;;9.48;3.42;;;6.50;99.90;;;;;;5053371;28;20179;-66
2021/04/17 07:16:06;;;;;;;4.72;3.10;;;6.40;99.90;;;;;;5053418;28;20184;-66
2021/04/17 07:18:35;;;;;;;2.67;1.00;;;6.50;99.90;;;;;;5051822;28;20322;-66
2021/04/17 07:21:30;;;;;;;5.10;2.35;;;6.40;99.90;;;;;;5052536;28;20665;-67
2021/04/17 07:23:58;;;;;;;2.05;1.25;;;6.50;99.90;;;;;;5052838;28;20391;-66
2021/04/17 07:26:30;;;;;;;3.10;1.55;;;6.50;99.90;;;;;;5052510;28;20197;-65
2021/04/17 07:29:07;;;;;;;10.40;4.72;;;6.50;99.90;;;;;;5045302;28;20693;-66
2021/04/17 07:31:35;;;;;;;6.07;1.77;;;6.70;99.90;;;;;;5046735;28;20224;-65
2021/04/17 07:34:14;;;;;;;7.05;2.33;;;7.00;99.90;;;;;;5052305;28;20208;-66
2021/04/17 07:36:53;;;;;;;7.80;4.03;;;7.10;99.90;;;;;;5050104;28;20545;-66
2021/04/17 07:39:42;;;;;;;7.28;4.75;;;7.40;99.90;;;;;;5052788;28;20188;-66
2021/04/17 07:42:12;;;;;;;7.55;2.67;;;7.30;99.90;;;;;;5009303;28;20208;-66
2021/04/17 07:44:42;;;;;;;8.73;1.88;;;7.30;99.90;;;;;;5040940;28;20320;-66
2021/04/17 07:47:13;;;;;;;1.73;1.20;;;7.30;99.90;;;;;;5039111;28;20209;-66
2021/04/17 07:49:40;;;;;;;3.30;1.52;;;7.40;99.90;;;;;;5041817;28;20281;-65
2021/04/17 07:52:10;;;;;;;1.30;0.90;;;7.40;99.90;;;;;;5032816;28;20592;-66
2021/04/17 07:54:39;;;;;;;6.95;3.45;;;7.50;99.90;;;;;;5032206;28;20181;-66
2021/04/17 07:57:08;;;;;;;5.72;2.45;;;7.60;99.90;;;;;;5014446;28;20221;-66
2021/04/17 07:59:37;;;;;;;4.35;2.08;;;7.80;99.90;;;;;;5032021;28;20189;-66
2021/04/17 08:02:06;;;;;;;3.25;2.05;;;7.90;99.90;;;;;;5032377;28;20190;-65
2021/04/17 08:04:33;;;;;;;2.58;1.98;;;7.90;99.90;;;;;;5032181;28;20194;-66
2021/04/17 08:07:02;;;;;;;3.88;2.53;;;7.80;99.90;;;;;;5032239;28;20279;-65
2021/04/17 08:09:30;;;;;;;5.28;2.67;;;8.00;99.90;;;;;;5041039;28;20189;-65
2021/04/17 08:12:01;;;;;;;1.55;1.20;;;7.90;99.90;;;;;;5052215;28;20177;-66
2021/04/17 08:14:29;;;;;;;2.72;2.30;;;8.10;99.90;;;;;;5052150;28;20590;-66
2021/04/17 08:16:57;;;;;;;2.40;2.20;;;8.20;99.90;;;;;;5051905;28;20227;-67
2021/04/17 08:19:25;;;;;;;2.58;2.30;;;8.50;99.90;;;;;;5034043;28;20204;-66
2021/04/17 08:21:53;;;;;;;2.95;1.75;;;8.60;99.90;;;;;;5051840;28;20193;-66
2021/04/17 08:24:25;;;;;;;4.32;2.05;;;8.40;99.90;;;;;;5051711;28;20205;-65
2021/04/17 08:26:54;;;;;;;3.35;2.25;;;8.30;99.90;;;;;;5047967;28;20189;-65
2021/04/17 08:29:50;;;;;;;3.45;1.33;;;8.70;99.90;;;;;;5032560;28;20181;-64
2021/04/17 08:32:29;;;;;;;3.95;1.60;;;9.00;99.90;;;;;;5033522;28;20212;-65
2021/04/17 08:35:11;;;;;;;3.65;1.60;;;9.10;99.90;;;;;;5038259;28;20184;-65
2021/04/17 08:38:11;;;;;;;3.78;2.08;;;9.30;99.90;;;;;;5043991;28;20247;-67
2021/04/17 08:40:49;;;;;;;2.90;1.52;;;9.30;99.90;;;;;;5049258;28;20176;-64
2021/04/17 08:43:28;;;;;;;3.25;1.08;;;9.30;99.90;;;;;;5031487;28;20541;-66
2021/04/17 08:46:08;;;;;;;2.45;1.50;;;9.40;99.90;;;;;;5031357;28;20751;-64
2021/04/17 08:48:52;;;;;;;4.07;1.50;;;9.30;99.90;;;;;;5033141;28;20204;-65
2021/04/17 08:51:37;;;;;;;2.30;1.60;;;9.00;99.90;;;;;;5051182;28;20183;-65
2021/04/17 08:54:17;;;;;;;4.07;2.40;;;9.10;99.90;;;;;;5051056;28;20609;-65
2021/04/17 08:56:50;;;;;;;1.75;1.20;;;9.50;99.90;;;;;;5051137;28;20168;-66
2021/04/17 08:59:19;;;;;;;3.65;2.05;;;9.80;99.90;;;;;;5051348;28;20524;-66
2021/04/17 09:01:49;;;;;;;2.60;1.88;;;9.70;99.90;;;;;;5044158;28;20185;-64
2021/04/17 09:04:17;;;;;;;2.40;2.20;;;9.90;99.90;;;;;;5038830;28;20193;-67
2021/04/17 09:06:46;;;;;;;2.28;1.90;;;9.70;99.90;;;;;;5048050;28;20196;-66
2021/04/17 09:09:33;;;;;;;3.42;1.40;;;9.80;99.90;;;;;;5047327;28;20665;-66
2021/04/17 09:12:21;;;;;;;3.90;1.50;;;9.80;99.90;;;;;;5039555;28;20184;-67
2021/04/17 09:14:56;;;;;;;1.40;0.98;;;10.00;99.90;;;;;;5050987;28;20177;-67
2021/04/17 09:17:47;;;;;;;2.38;1.15;;;10.30;99.90;;;;;;5050805;28;20208;-66
2021/04/17 09:20:35;;;;;;;2.65;1.92;;;10.40;99.90;;;;;;5051257;28;20257;-66
2021/04/17 09:23:03;;;;;;;2.95;1.65;;;10.40;99.90;;;;;;5050676;28;20172;-65
2021/04/17 09:25:42;;;;;;;4.03;1.95;;;10.30;99.90;;;;;;5050754;28;20658;-66
2021/04/17 09:28:10;;;;;;;4.32;3.05;;;10.40;99.90;;;;;;5050668;28;20299;-67
2021/04/17 09:30:38;;;;;;;2.45;1.60;;;10.90;99.90;;;;;;5048927;28;20192;-68
2021/04/17 09:33:07;;;;;;;3.55;1.27;;;11.10;99.90;;;;;;5030630;28;20189;-65
2021/04/17 09:35:39;;;;;;;8.38;1.65;;;11.30;99.90;;;;;;5020568;28;20189;-66
2021/04/17 09:38:14;;;;;;;5.17;1.70;;;11.40;99.90;;;;;;5044336;28;20205;-67
2021/04/17 09:40:48;;;;;;;2.80;1.53;;;11.60;99.90;;;;;;5036875;28;20427;-68
2021/04/17 09:43:27;;;;;;;2.40;2.20;;;11.90;99.90;;;;;;5046916;28;20430;-68
2021/04/17 09:45:56;;;;;;;4.53;1.50;;;12.00;99.90;;;;;;5034394;28;20990;-65
2021/04/17 09:48:24;;;;;;;3.38;1.85;;;11.70;99.90;;;;;;5052777;28;20469;-66
2021/04/17 09:50:56;;;;;;;3.33;2.35;;;11.30;99.90;;;;;;5052155;28;20188;-66
2021/04/17 09:53:28;;;;;;;2.30;1.92;;;10.80;99.90;;;;;;5054658;28;20204;-66
2021/04/17 09:55:59;;;;;;;4.57;1.95;;;10.50;99.90;;;;;;5055230;28;20250;-67
2021/04/17 09:58:32;;;;;;;6.00;3.63;;;10.40;99.90;;;;;;5054660;28;20291;-66
2021/04/17 10:01:09;;;;;;;6.35;2.67;;;10.60;99.90;;;;;;5054315;28;20181;-65
2021/04/17 10:03:40;;;;;;;3.92;3.05;;;10.70;99.90;;;;;;5053437;28;20185;-67
2021/04/17 10:06:25;;;;;;;2.63;2.42;;;11.00;99.90;;;;;;5054230;28;20616;-65
2021/04/17 10:08:53;;;;;;;3.00;2.70;;;11.10;99.90;;;;;;5035975;28;20311;-67
2021/04/17 10:11:27;;;;;;;4.45;2.38;;;11.00;99.90;;;;;;5054162;28;20505;-67
2021/04/17 10:13:55;;;;;;;5.28;2.60;;;10.80;99.90;;;;;;5053925;28;20222;-66
2021/04/17 10:16:26;;;;;;;3.50;1.97;;;10.90;99.90;;;;;;5053661;28;20242;-65
2021/04/17 10:18:54;;;;;;;2.70;1.90;;;11.00;99.90;;;;;;5045612;28;20449;-67
2021/04/17 10:21:28;;;;;;;3.60;2.60;;;11.10;99.90;;;;;;5050140;28;20438;-66
2021/04/17 10:24:15;;;;;;;5.70;1.93;;;11.40;99.90;;;;;;5044788;28;20526;-66
2021/04/17 10:26:53;;;;;;;5.60;2.60;;;11.90;99.90;;;;;;5053483;28;20442;-69
2021/04/17 10:29:22;;;;;;;5.90;2.27;;;11.80;99.90;;;;;;5052943;28;20484;-69
2021/04/17 10:31:59;;;;;;;6.60;2.43;;;11.70;99.90;;;;;;5052677;28;20631;-69
2021/04/17 10:34:26;;;;;;;5.35;3.63;;;11.50;99.90;;;;;;5054479;28;20409;-65
2021/04/17 10:37:03;;;;;;;3.13;2.13;;;11.60;99.90;;;;;;5050222;28;20196;-67
2021/04/17 10:39:30;;;;;;;2.28;1.98;;;11.80;99.90;;;;;;5034103;28;20422;-65
2021/04/17 10:42:04;;;;;;;4.93;2.80;;;11.90;99.90;;;;;;5033543;28;20186;-66
2021/04/17 10:44:31;;;;;;;3.17;2.40;;;12.00;99.90;;;;;;5034049;28;20806;-65
2021/04/17 10:47:00;;;;;;;6.30;2.63;;;12.10;99.90;;;;;;5033873;28;20486;-66
2021/04/17 10:49:34;;;;;;;4.33;3.00;;;12.20;99.90;;;;;;5033737;28;20412;-65
2021/04/17 10:52:06;;;;;;;3.40;2.47;;;12.60;99.90;;;;;;5033994;28;20424;-66
2021/04/17 10:54:50;;;;;;;5.47;1.80;;;13.20;99.90;;;;;;5033766;28;20412;-66
2021/04/17 10:57:18;;;;;;;3.47;1.97;;;13.60;99.90;;;;;;5032468;28;20470;-66
2021/04/17 10:59:52;;;;;;;9.60;2.33;;;13.60;99.90;;;;;;5033544;28;20424;-66
2021/04/17 11:02:24;;;;;;;2.13;1.83;;;13.10;99.90;;;;;;5033732;28;20416;-67
2021/04/17 11:04:52;;;;;;;3.17;2.60;;;12.70;99.90;;;;;;5033761;28;20448;-66
2021/04/17 11:07:27;;;;;;;10.73;2.47;;;12.90;99.90;;;;;;5033822;28;20432;-67
2021/04/17 11:09:54;;;;;;;4.10;2.40;;;12.90;99.90;;;;;;5033662;28;20431;-66
2021/04/17 11:12:28;;;;;;;5.77;3.10;;;13.10;99.90;;;;;;5033535;28;20795;-67
2021/04/17 11:15:16;;;;;;;4.37;2.37;;;13.10;99.90;;;;;;5034374;28;20810;-67
2021/04/17 11:17:43;;;;;;;4.80;2.30;;;13.40;99.90;;;;;;5033443;28;20468;-65
2021/04/17 11:20:19;;;;;;;3.80;3.03;;;13.50;99.90;;;;;;5033171;28;20458;-65
2021/04/17 11:22:48;;;;;;;5.40;3.17;;;13.40;99.90;;;;;;5033118;28;20398;-66
2021/04/17 11:25:15;;;;;;;7.07;3.00;;;13.10;99.90;;;;;;5033747;28;20468;-66
2021/04/17 11:27:42;;;;;;;6.90;4.20;;;13.20;99.90;;;;;;5047503;28;20445;-65
2021/04/17 11:30:11;;;;;;;8.60;2.13;;;13.30;99.90;;;;;;5052377;28;20770;-66
2021/04/17 11:32:39;;;;;;;5.70;2.87;;;13.50;99.90;;;;;;5044072;28;20437;-66
2021/04/17 11:35:11;;;;;;;3.23;2.40;;;13.20;99.90;;;;;;5052004;28;20402;-66
2021/04/17 11:37:38;;;;;;;6.90;2.90;;;13.40;99.90;;;;;;5051200;28;20462;-68
2021/04/17 11:40:08;;;;;;;4.40;2.87;;;13.70;99.90;;;;;;5052234;28;20492;-65
2021/04/17 11:42:35;;;;;;;4.33;3.80;;;13.80;99.90;;;;;;5052140;28;20430;-67
2021/04/17 11:45:04;;;;;;;6.00;2.53;;;13.50;99.90;;;;;;5052154;28;20459;-65
2021/04/17 11:47:31;;;;;;;3.40;2.47;;;13.20;99.90;;;;;;5053148;28;20443;-65
2021/04/17 11:49:58;;;;;;;7.80;3.67;;;13.40;99.90;;;;;;5034152;28;20420;-67
2021/04/17 11:52:25;;;;;;;4.20;2.73;;;13.60;99.90;;;;;;5041082;28;20420;-65
2021/04/17 11:54:54;;;;;;;4.33;3.27;;;13.60;99.90;;;;;;5032853;28;20840;-65
2021/04/17 11:57:22;;;;;;;4.10;3.20;;;13.40;99.90;;;;;;5038924;28;20491;-65
2021/04/17 11:59:49;;;;;;;4.83;3.10;;;13.30;99.90;;;;;;5033783;28;20948;-65
2021/04/17 12:02:16;;;;;;;5.50;3.50;;;13.20;99.90;;;;;;5035012;28;20395;-66
2021/04/17 12:04:44;;;;;;;5.57;3.40;;;13.30;99.90;;;;;;5042695;28;20745;-65
2021/04/17 12:07:11;;;;;;;5.97;3.00;;;13.40;99.90;;;;;;5046244;28;20986;-66
2021/04/17 12:09:38;;;;;;;7.87;3.77;;;13.40;99.90;;;;;;5052015;28;20410;-66
2021/04/17 12:12:06;;;;;;;4.67;3.13;;;13.60;99.90;;;;;;5052335;28;20896;-66
2021/04/17 12:14:34;;;;;;;5.17;2.90;;;13.90;99.90;;;;;;5034334;28;20449;-66
2021/04/17 12:17:01;;;;;;;4.00;3.37;;;14.00;99.90;;;;;;5052647;28;20410;-66
2021/04/17 12:19:29;;;;;;;4.77;3.50;;;14.20;99.90;;;;;;5066110;22;20747;-66
2021/04/17 12:21:56;;;;;;;3.40;2.40;;;14.30;99.90;;;;;;5047464;28;20399;-68
2021/04/17 12:24:23;;;;;;;4.87;3.40;;;14.00;99.90;;;;;;5032147;28;20510;-67
2021/04/17 12:26:51;;;;;;;6.90;2.83;;;13.80;99.90;;;;;;5031666;28;20472;-66
2021/04/17 12:29:18;;;;;;;4.53;3.40;;;14.00;99.90;;;;;;5031839;28;20568;-67
2021/04/17 12:31:46;;;;;;;5.53;3.70;;;14.30;99.90;;;;;;5031826;28;20841;-68
2021/04/17 12:34:13;;;;;;;3.20;2.63;;;14.80;99.90;;;;;;5031749;28;20386;-68
2021/04/17 12:36:41;;;;;;;6.23;3.60;;;14.80;99.90;;;;;;5031516;28;20428;-68
2021/04/17 12:39:08;;;;;;;4.27;3.10;;;14.60;99.90;;;;;;5031669;28;20425;-67
2021/04/17 12:41:35;;;;;;;11.13;3.30;;;14.30;99.90;;;;;;5031934;28;20399;-67
2021/04/17 12:44:03;;;;;;;5.57;2.90;;;14.00;99.90;;;;;;5031384;28;20395;-68
2021/04/17 12:46:30;;;;;;;6.80;4.77;;;14.20;99.90;;;;;;5031705;28;20500;-67
2021/04/17 12:48:58;;;;;;;4.20;3.10;;;14.00;99.90;;;;;;5031890;28;20499;-67
2021/04/17 12:51:26;;;;;;;9.40;5.13;;;13.80;99.90;;;;;;5031905;28;20399;-66
2021/04/17 12:53:53;;;;;;;4.83;3.50;;;13.80;99.90;;;;;;5031278;28;20845;-67
2021/04/17 12:56:21;;;;;;;5.00;3.77;;;13.70;99.90;;;;;;5032365;28;20494;-69
2021/04/17 12:58:48;;;;;;;5.23;3.70;;;13.60;99.90;;;;;;5032028;28;20990;-66
2021/04/17 13:01:15;;;;;;;3.70;3.00;;;13.60;99.90;;;;;;5032092;28;20921;-67
2021/04/17 13:03:42;;;;;;;6.73;3.43;;;14.00;99.90;;;;;;5031859;28;20418;-67
2021/04/17 13:06:11;;;;;;;6.20;4.30;;;14.30;99.90;;;;;;5031533;28;20467;-66